Aérodrome :
LOGIN :

S'inscrire | Disclaimer

   EN    FR    IT 

 










Légende :    VFR   VFR Marginal   IFR   IFR Intensif   IFR Très Intensif
Visi : 
Plafond : 
>= 8 km
>= 3000ft
5 à 8 km
1000 à 3000 ft
1500m à 5 km
500 à 1000 ft
800 à 1500m
200 à 500 ft
< 800m
< 200 ft
Symboles :   Orages  Brouillard  Fortes neiges  Fortes précipitations  Vent > 20 kt
SIGMETs :   Divers  Orages  Givrage  Turbulence  Onde Orograph.  Cendres Volcan.






- Altitude de l'aérodrome : 788 ft
- Code IATA : DCM


LFCK - Castres-Mazamet

DERNIER METAR :
  • 140130Z AUTO 12015KT 9999 ///TCU 08/03 Q1002

METARs EXPIRÉS :
  • 140100Z AUTO 12015KT CAVOK 07/03 Q1002
  • 140030Z AUTO 12013KT CAVOK 06/03 Q1003
  • 140000Z AUTO 12012KT CAVOK 06/03 Q1004
  • 132330Z AUTO 12009KT CAVOK 05/03 Q1005
  • 132300Z AUTO 12008KT CAVOK 05/03 Q1005

TAF TAF LFCK
Valide du 13 à 18h jusqu'au 14 à 03h UTC


131700Z 1318/1403 29005KT CAVOK
TEMPO 1318/1320 BKN013



MET'MAP, la Météo Aéronautique d'un coup d'oeil ! - Copyright ORBIFLY Décembre 2007 - Disclaimer

ORBIFLY MET'MAP TEAM :

Programmation & Développement : Alexandra Zaïnal
Conception & Développement : Baudouin d'Aumeries
Co-Programmation & Développement : Marc-Olivier Méhu
Soutien technique & logistique : Manuel Goepfert

Contact : metmap@orbifly.com




SOURCES & CREDITS :

   NOAA